createdAt,value
2023-05-01T00:00:10.207Z,59.65
2023-05-01T00:01:10.304Z,59.51
2023-05-01T00:02:10.253Z,59.25
2023-05-01T00:03:10.446Z,59.14
2023-05-01T00:04:10.636Z,59.13
2023-05-01T00:05:10.447Z,59.16
2023-05-01T00:06:10.461Z,59.05
2023-05-01T00:07:10.386Z,59.34
2023-05-01T00:08:11.407Z,59.56
2023-05-01T00:09:10.454Z,59.46
2023-05-01T00:10:10.524Z,59.25
2023-05-01T00:11:10.514Z,59.32
2023-05-01T00:12:10.503Z,59.40
2023-05-01T00:13:10.551Z,59.46
2023-05-01T00:14:10.563Z,59.33
2023-05-01T00:15:10.545Z,59.09
2023-05-01T00:16:10.654Z,59.10
2023-05-01T00:17:10.587Z,59.04
2023-05-01T00:18:10.631Z,58.99
2023-05-01T00:19:10.628Z,58.83
2023-05-01T00:20:10.601Z,59.01
2023-05-01T00:21:10.598Z,59.11
2023-05-01T00:22:10.609Z,58.88
2023-05-01T00:23:10.621Z,58.66
2023-05-01T00:24:10.729Z,58.73
2023-05-01T00:25:10.792Z,59.17
2023-05-01T00:26:10.769Z,59.40
2023-05-01T00:27:10.790Z,59.50
2023-05-01T00:28:10.827Z,59.49
2023-05-01T00:29:10.780Z,59.25
2023-05-01T00:30:10.819Z,59.22
2023-05-01T00:31:10.803Z,59.42
2023-05-01T00:32:10.976Z,59.41
2023-05-01T00:33:10.905Z,59.49
2023-05-01T00:34:10.858Z,59.46
2023-05-01T00:35:10.985Z,59.64
2023-05-01T00:36:11.010Z,59.95
2023-05-01T00:37:11.020Z,60.04
2023-05-01T00:38:11.039Z,59.92
2023-05-01T00:39:11.050Z,59.63
2023-05-01T00:40:11.083Z,59.58
2023-05-01T00:41:11.046Z,59.53
2023-05-01T00:42:11.061Z,59.68
2023-05-01T00:43:11.032Z,59.68
2023-05-01T00:44:11.170Z,59.58
2023-05-01T00:45:11.070Z,59.64
2023-05-01T00:46:11.113Z,59.60
2023-05-01T00:47:11.154Z,59.27
2023-05-01T00:48:11.255Z,59.12
2023-05-01T00:49:11.136Z,58.88
2023-05-01T00:50:11.208Z,58.66
2023-05-01T00:51:11.272Z,58.69
2023-05-01T00:52:11.310Z,58.66
2023-05-01T00:53:11.394Z,58.61
2023-05-01T00:54:11.454Z,58.76
2023-05-01T00:55:11.459Z,59.00
2023-05-01T00:56:11.532Z,58.91
2023-05-01T00:57:11.608Z,58.83
2023-05-01T00:58:11.621Z,58.52
2023-05-01T00:59:11.684Z,58.52
2023-05-01T01:00:11.729Z,58.81
2023-05-01T01:01:11.744Z,58.96
2023-05-01T01:02:11.797Z,58.82
2023-05-01T01:03:11.867Z,58.65
2023-05-01T01:04:11.954Z,58.98
2023-05-01T01:05:11.934Z,58.96
2023-05-01T01:06:11.971Z,58.98
2023-05-01T01:07:11.993Z,58.97
2023-05-01T01:08:12.012Z,58.93
2023-05-01T01:09:12.050Z,59.11
2023-05-01T01:10:12.054Z,59.33
2023-05-01T01:11:12.005Z,59.47
2023-05-01T01:12:12.083Z,59.41
2023-05-01T01:13:12.148Z,59.74
2023-05-01T01:14:12.271Z,59.75
2023-05-01T01:15:12.186Z,59.60
2023-05-01T01:16:13.892Z,59.24
2023-05-01T01:17:12.304Z,59.20
2023-05-01T01:18:12.292Z,58.93
2023-05-01T01:19:12.266Z,59.18
2023-05-01T01:20:12.336Z,59.51
2023-05-01T01:21:12.298Z,59.52
2023-05-01T01:22:12.328Z,59.28
2023-05-01T01:23:12.344Z,59.10
2023-05-01T01:24:12.379Z,59.24
2023-05-01T01:25:12.555Z,59.25
2023-05-01T01:26:12.394Z,59.59
2023-05-01T01:27:12.464Z,59.86
2023-05-01T01:28:12.486Z,60.02
2023-05-01T01:29:12.500Z,59.66
2023-05-01T01:30:12.585Z,59.66
2023-05-01T01:31:12.564Z,59.60
2023-05-01T01:32:12.556Z,59.48
2023-05-01T01:33:12.581Z,59.62
2023-05-01T01:34:12.645Z,60.03
2023-05-01T01:35:12.619Z,60.00
2023-05-01T01:36:12.676Z,59.93
2023-05-01T01:37:12.647Z,60.03
2023-05-01T01:38:12.676Z,60.18
2023-05-01T01:39:12.744Z,60.09
2023-05-01T01:40:12.721Z,60.05
2023-05-01T01:41:12.798Z,59.99
2023-05-01T01:42:12.850Z,60.16
2023-05-01T01:43:12.778Z,60.30
2023-05-01T01:44:12.789Z,60.34
2023-05-01T01:45:12.870Z,60.27
2023-05-01T01:46:12.998Z,60.34
2023-05-01T01:47:12.855Z,60.23
2023-05-01T01:48:12.901Z,60.11
2023-05-01T01:49:12.912Z,60.09
2023-05-01T01:50:12.910Z,59.84
2023-05-01T01:51:13.792Z,59.57
2023-05-01T01:52:12.952Z,59.28
2023-05-01T01:53:13.010Z,59.12
2023-05-01T01:54:13.049Z,59.26
2023-05-01T01:55:13.063Z,59.37
2023-05-01T01:56:13.102Z,59.69
2023-05-01T01:57:13.142Z,60.00
2023-05-01T01:58:13.157Z,60.15
2023-05-01T01:59:13.152Z,60.16
2023-05-01T02:00:13.154Z,60.17
2023-05-01T02:01:13.329Z,60.11
2023-05-01T02:02:13.453Z,60.06
2023-05-01T02:03:13.381Z,59.98
2023-05-01T02:04:13.389Z,60.20
2023-05-01T02:05:13.366Z,60.41
2023-05-01T02:06:13.385Z,60.28
2023-05-01T02:07:13.354Z,60.32
2023-05-01T02:08:13.375Z,59.93
2023-05-01T02:09:13.378Z,59.74
2023-05-01T02:10:13.413Z,59.59
2023-05-01T02:11:13.506Z,59.22
2023-05-01T02:12:13.459Z,59.12
2023-05-01T02:13:13.507Z,59.31
2023-05-01T02:14:13.507Z,59.40
2023-05-01T02:15:13.526Z,59.07
2023-05-01T02:16:13.564Z,59.15
2023-05-01T02:17:13.507Z,59.70
2023-05-01T02:18:13.523Z,59.75
2023-05-01T02:19:13.581Z,59.77
2023-05-01T02:20:13.628Z,59.65
2023-05-01T02:21:13.627Z,59.31
2023-05-01T02:22:13.791Z,59.26
2023-05-01T02:23:13.727Z,59.05
2023-05-01T02:24:13.723Z,58.99
2023-05-01T02:25:13.696Z,59.11
2023-05-01T02:26:13.711Z,58.97
2023-05-01T02:27:13.752Z,58.83
2023-05-01T02:28:13.766Z,59.77
2023-05-01T02:29:13.766Z,60.27
2023-05-01T02:30:13.819Z,60.41
2023-05-01T02:31:13.891Z,61.04
2023-05-01T02:32:13.871Z,60.85
2023-05-01T02:33:13.939Z,60.35
2023-05-01T02:34:13.936Z,60.03
2023-05-01T02:35:13.966Z,59.71
2023-05-01T02:36:13.959Z,59.70
2023-05-01T02:37:13.979Z,59.80
2023-05-01T02:38:14.010Z,59.66
2023-05-01T02:39:14.163Z,59.75
2023-05-01T02:40:14.135Z,59.88
2023-05-01T02:41:14.200Z,59.82
2023-05-01T02:42:14.216Z,59.55
2023-05-01T02:43:14.214Z,59.43
2023-05-01T02:44:14.254Z,59.53
2023-05-01T02:45:14.222Z,59.42
2023-05-01T02:46:14.289Z,59.33
2023-05-01T02:47:14.325Z,59.17
2023-05-01T02:48:14.359Z,58.89
2023-05-01T02:49:14.306Z,58.78
2023-05-01T02:50:14.279Z,58.73
2023-05-01T02:51:14.322Z,58.84
2023-05-01T02:52:14.354Z,59.12
2023-05-01T02:53:14.370Z,59.13
2023-05-01T02:54:14.361Z,59.04
2023-05-01T02:55:14.341Z,58.95
2023-05-01T02:56:16.349Z,58.99
2023-05-01T02:57:14.395Z,59.03
2023-05-01T02:58:14.441Z,58.88
2023-05-01T02:59:14.399Z,58.77
2023-05-01T03:00:14.543Z,58.78
2023-05-01T03:01:14.681Z,58.83
2023-05-01T03:02:14.529Z,59.33
2023-05-01T03:03:14.691Z,59.97
2023-05-01T03:04:14.710Z,60.31
2023-05-01T03:05:14.594Z,60.29
2023-05-01T03:06:14.644Z,60.19
2023-05-01T03:07:14.620Z,59.90
2023-05-01T03:08:14.641Z,59.71
2023-05-01T03:09:14.613Z,59.56
2023-05-01T03:10:14.684Z,59.38
2023-05-01T03:11:14.689Z,59.28
2023-05-01T03:12:14.665Z,59.27
2023-05-01T03:13:14.682Z,59.29
2023-05-01T03:14:14.773Z,59.19
2023-05-01T03:15:14.790Z,59.66
2023-05-01T03:16:14.781Z,59.54
2023-05-01T03:17:14.863Z,59.77
2023-05-01T03:18:14.734Z,59.77
2023-05-01T03:19:14.738Z,60.10
2023-05-01T03:20:14.762Z,60.35
2023-05-01T03:21:14.876Z,60.32
2023-05-01T03:22:14.910Z,59.92
2023-05-01T03:23:14.914Z,59.65
2023-05-01T03:24:14.967Z,59.92
2023-05-01T03:25:14.947Z,59.79
2023-05-01T03:26:14.977Z,59.83
2023-05-01T03:27:14.991Z,60.48
2023-05-01T03:28:15.025Z,60.55
2023-05-01T03:29:14.992Z,60.12
2023-05-01T03:30:15.034Z,59.74
2023-05-01T03:31:15.069Z,59.81
2023-05-01T03:32:15.206Z,59.87
2023-05-01T03:33:15.172Z,60.11
2023-05-01T03:34:15.097Z,60.86
2023-05-01T03:35:15.249Z,61.51
2023-05-01T03:36:15.222Z,61.59
2023-05-01T03:37:15.200Z,61.47
2023-05-01T03:38:15.200Z,61.55
2023-05-01T03:39:15.244Z,61.26
2023-05-01T03:40:15.230Z,60.93
2023-05-01T03:41:15.247Z,60.92
2023-05-01T03:42:15.300Z,60.68
2023-05-01T03:43:15.345Z,60.41
2023-05-01T03:44:15.413Z,60.27
2023-05-01T03:45:15.440Z,60.08
2023-05-01T03:46:15.517Z,60.03
2023-05-01T03:47:15.490Z,60.47
2023-05-01T03:48:15.535Z,60.23
2023-05-01T03:49:15.579Z,59.64
2023-05-01T03:50:15.569Z,59.22
2023-05-01T03:51:15.612Z,59.02
2023-05-01T03:52:15.636Z,58.88
2023-05-01T03:53:15.678Z,58.77
2023-05-01T03:54:15.703Z,58.56
2023-05-01T03:55:15.772Z,58.35
2023-05-01T03:56:15.769Z,58.33
2023-05-01T03:57:15.894Z,58.26
2023-05-01T03:58:15.822Z,58.52
2023-05-01T03:59:15.846Z,58.49
2023-05-01T04:00:15.873Z,58.37
2023-05-01T04:01:15.886Z,58.34
2023-05-01T04:02:15.957Z,58.83
2023-05-01T04:03:16.029Z,59.11
2023-05-01T04:04:16.022Z,59.97
2023-05-01T04:05:16.058Z,60.07
2023-05-01T04:06:16.057Z,60.20
2023-05-01T04:07:16.046Z,60.01
2023-05-01T04:08:16.130Z,59.73
2023-05-01T04:09:16.161Z,59.63
2023-05-01T04:10:16.105Z,59.93
2023-05-01T04:11:16.116Z,60.63
2023-05-01T04:12:16.138Z,61.16
2023-05-01T04:13:16.211Z,61.36
2023-05-01T04:14:16.226Z,61.42
2023-05-01T04:15:16.244Z,61.06
2023-05-01T04:16:16.394Z,60.54
2023-05-01T04:17:16.280Z,60.31
2023-05-01T04:18:16.367Z,60.01
2023-05-01T04:19:16.345Z,59.92
2023-05-01T04:20:16.392Z,60.27
2023-05-01T04:21:16.462Z,60.67
2023-05-01T04:22:16.549Z,60.67
2023-05-01T04:23:16.544Z,60.74
2023-05-01T04:24:16.508Z,60.65
2023-05-01T04:25:16.531Z,60.57
2023-05-01T04:26:16.579Z,60.78
2023-05-01T04:27:16.569Z,60.57
2023-05-01T04:28:16.553Z,60.36
2023-05-01T04:29:16.593Z,60.34
2023-05-01T04:30:16.626Z,60.61
2023-05-01T04:31:16.796Z,60.82
2023-05-01T04:32:16.719Z,60.79
2023-05-01T04:33:16.689Z,60.79
2023-05-01T04:34:16.767Z,60.77
2023-05-01T04:35:16.764Z,60.75
2023-05-01T04:36:16.802Z,60.51
2023-05-01T04:37:16.777Z,60.23
2023-05-01T04:38:16.769Z,60.34
2023-05-01T04:39:16.810Z,60.86
2023-05-01T04:40:16.840Z,61.27
2023-05-01T04:41:16.932Z,61.39
2023-05-01T04:42:16.949Z,61.32
2023-05-01T04:43:16.976Z,60.96
2023-05-01T04:44:17.042Z,61.05
2023-05-01T04:45:16.992Z,61.45
2023-05-01T04:46:17.001Z,61.50
2023-05-01T04:47:17.038Z,61.92
2023-05-01T04:48:17.117Z,61.97
2023-05-01T04:49:17.107Z,61.45
2023-05-01T04:50:17.157Z,62.00
2023-05-01T04:51:17.406Z,62.04
2023-05-01T04:52:17.210Z,62.22
2023-05-01T04:53:17.274Z,62.28
2023-05-01T04:54:17.349Z,62.33
2023-05-01T04:55:17.321Z,62.32
2023-05-01T04:56:17.445Z,62.04
2023-05-01T04:57:17.520Z,62.10
2023-05-01T04:58:17.420Z,62.00
2023-05-01T04:59:17.551Z,61.83
2023-05-01T05:00:17.542Z,61.75
2023-05-01T05:01:17.588Z,61.66
2023-05-01T05:02:17.535Z,61.72
2023-05-01T05:03:18.498Z,61.88
2023-05-01T05:04:17.553Z,62.00
2023-05-01T05:05:17.577Z,62.14
2023-05-01T05:06:17.645Z,62.00
2023-05-01T05:07:17.604Z,62.19
2023-05-01T05:08:17.637Z,62.01
2023-05-01T05:09:20.049Z,62.87
2023-05-01T05:10:17.925Z,62.99
2023-05-01T05:11:17.902Z,62.71
2023-05-01T05:12:17.919Z,62.65
2023-05-01T05:13:17.940Z,62.66
2023-05-01T05:14:17.997Z,62.14
2023-05-01T05:15:17.997Z,61.76
2023-05-01T05:16:18.066Z,61.55
2023-05-01T05:17:18.077Z,61.56
2023-05-01T05:18:18.127Z,61.94
2023-05-01T05:19:18.239Z,62.39
2023-05-01T05:20:18.097Z,62.02
2023-05-01T05:21:18.191Z,61.55
2023-05-01T05:22:18.160Z,61.28
2023-05-01T05:23:18.248Z,61.27
2023-05-01T05:24:18.280Z,61.49
2023-05-01T05:25:18.350Z,61.54
2023-05-01T05:26:18.269Z,61.57
2023-05-01T05:27:18.331Z,61.47
2023-05-01T05:28:18.885Z,61.60
2023-05-01T05:29:18.398Z,61.42
2023-05-01T05:30:18.363Z,61.27
2023-05-01T05:31:18.452Z,60.93
2023-05-01T05:32:18.555Z,60.59
2023-05-01T05:33:18.509Z,59.97
2023-05-01T05:34:18.675Z,59.50
2023-05-01T05:35:18.532Z,58.92
2023-05-01T05:36:18.628Z,58.35
2023-05-01T05:37:18.603Z,58.46
2023-05-01T05:38:18.577Z,58.63
2023-05-01T05:39:18.602Z,58.48
2023-05-01T05:40:18.654Z,58.75
2023-05-01T05:41:18.670Z,58.97
2023-05-01T05:42:18.732Z,59.10
2023-05-01T05:43:18.784Z,59.32
2023-05-01T05:44:18.794Z,59.29
2023-05-01T05:45:18.819Z,59.33
2023-05-01T05:46:18.920Z,59.35
2023-05-01T05:47:18.910Z,59.56
2023-05-01T05:48:18.981Z,58.87
2023-05-01T05:49:19.109Z,59.12
2023-05-01T05:50:19.055Z,58.94
2023-05-01T05:51:19.017Z,58.55
2023-05-01T05:52:19.095Z,58.88
2023-05-01T05:53:19.053Z,59.38
2023-05-01T05:54:19.089Z,60.21
2023-05-01T05:55:19.190Z,61.23
2023-05-01T05:56:19.205Z,61.04
2023-05-01T05:57:19.261Z,60.83
2023-05-01T05:58:19.250Z,59.80
2023-05-01T05:59:19.263Z,59.64
2023-05-01T06:00:19.282Z,59.41
2023-05-01T06:01:19.358Z,60.54
2023-05-01T06:02:19.412Z,59.81
2023-05-01T06:03:19.533Z,59.04
2023-05-01T06:04:19.474Z,59.14
2023-05-01T06:05:19.576Z,59.05
2023-05-01T06:06:19.626Z,58.87
2023-05-01T06:07:19.874Z,58.96
2023-05-01T06:08:19.593Z,58.76
2023-05-01T06:09:19.620Z,58.40
2023-05-01T06:10:19.724Z,58.02
2023-05-01T06:11:19.749Z,57.99
2023-05-01T06:12:19.766Z,58.10
2023-05-01T06:13:19.834Z,58.24
2023-05-01T06:14:19.766Z,57.91
2023-05-01T06:15:19.811Z,57.92
2023-05-01T06:16:19.810Z,57.31
2023-05-01T06:17:19.750Z,56.85
2023-05-01T06:18:19.852Z,56.69
2023-05-01T06:19:19.830Z,57.37
2023-05-01T06:20:19.856Z,56.77
2023-05-01T06:21:19.905Z,56.37
2023-05-01T06:22:19.939Z,56.44
2023-05-01T06:23:19.935Z,56.42
2023-05-01T06:24:19.928Z,56.07
2023-05-01T06:25:19.958Z,56.04
2023-05-01T06:26:19.973Z,56.08
2023-05-01T06:27:19.997Z,56.20
2023-05-01T06:28:20.014Z,55.74
2023-05-01T06:29:20.149Z,55.88
2023-05-01T06:30:20.158Z,56.26
2023-05-01T06:31:20.196Z,55.79
2023-05-01T06:32:20.295Z,55.78
2023-05-01T06:33:20.349Z,55.53
2023-05-01T06:34:20.378Z,55.73
2023-05-01T06:35:20.400Z,55.86
2023-05-01T06:36:20.455Z,55.68
2023-05-01T06:37:20.917Z,55.37
2023-05-01T06:38:20.526Z,55.59
2023-05-01T06:39:20.569Z,55.93
2023-05-01T06:40:20.629Z,56.36
2023-05-01T06:41:20.651Z,56.37
2023-05-01T06:42:20.747Z,56.90
2023-05-01T06:43:20.872Z,56.29
2023-05-01T06:44:20.908Z,56.42
2023-05-01T06:45:20.872Z,56.31
2023-05-01T06:46:21.002Z,57.06
2023-05-01T06:47:21.053Z,56.82
2023-05-01T06:48:21.008Z,57.00
2023-05-01T06:49:20.951Z,56.68
2023-05-01T06:50:21.033Z,56.84
2023-05-01T06:51:21.012Z,57.07
2023-05-01T06:52:21.059Z,56.40
2023-05-01T06:53:21.122Z,56.26
2023-05-01T06:54:21.102Z,55.35
2023-05-01T06:55:21.098Z,55.76
2023-05-01T06:56:21.146Z,55.40
2023-05-01T06:57:21.183Z,54.70
2023-05-01T06:58:24.395Z,54.66
2023-05-01T06:59:21.190Z,54.34
2023-05-01T07:00:21.228Z,54.69
2023-05-01T07:01:21.291Z,55.03
2023-05-01T07:02:21.291Z,54.71
2023-05-01T07:03:21.374Z,54.63
2023-05-01T07:04:21.150Z,54.82
2023-05-01T07:05:21.154Z,53.48
2023-05-01T07:06:21.182Z,52.83
2023-05-01T07:07:21.152Z,53.83
2023-05-01T07:08:21.136Z,53.30
2023-05-01T07:09:21.152Z,53.10
2023-05-01T07:10:21.182Z,52.44
2023-05-01T07:11:21.084Z,52.72
2023-05-01T07:12:21.120Z,52.50
2023-05-01T07:13:21.099Z,53.13
2023-05-01T07:14:21.154Z,53.43
2023-05-01T07:15:21.053Z,54.35
2023-05-01T07:16:21.128Z,55.70
2023-05-01T07:17:21.253Z,55.10
2023-05-01T07:18:21.062Z,55.31
2023-05-01T07:19:21.114Z,55.24
2023-05-01T07:20:21.066Z,54.23
2023-05-01T07:21:21.137Z,54.10
2023-05-01T07:22:21.023Z,53.98
2023-05-01T07:23:20.997Z,53.66
2023-05-01T07:24:21.967Z,53.62
2023-05-01T07:25:21.040Z,53.54
2023-05-01T07:26:21.028Z,52.81
2023-05-01T07:27:21.041Z,52.90
2023-05-01T07:28:21.032Z,52.92
2023-05-01T07:29:20.992Z,53.34
2023-05-01T07:30:20.994Z,52.97
2023-05-01T07:31:21.068Z,52.37
2023-05-01T07:32:21.618Z,52.23
2023-05-01T07:33:21.212Z,52.11
2023-05-01T07:34:20.958Z,51.75
2023-05-01T07:35:21.998Z,51.99
2023-05-01T07:36:20.971Z,52.71
2023-05-01T07:37:20.949Z,52.72
2023-05-01T07:38:21.011Z,52.74
2023-05-01T07:39:20.883Z,52.81
2023-05-01T07:40:20.937Z,52.83
2023-05-01T07:41:20.907Z,52.77
2023-05-01T07:42:20.888Z,52.32
2023-05-01T07:43:20.863Z,52.45
2023-05-01T07:44:20.907Z,52.50
2023-05-01T07:45:20.952Z,52.30
2023-05-01T07:46:20.880Z,52.13
2023-05-01T07:47:21.020Z,52.30
2023-05-01T07:48:20.881Z,52.32
2023-05-01T07:49:20.854Z,52.13
2023-05-01T07:50:20.837Z,51.82
2023-05-01T07:51:20.858Z,51.42
2023-05-01T07:52:21.382Z,51.59
2023-05-01T07:53:20.828Z,51.28
2023-05-01T07:54:20.865Z,50.95
2023-05-01T07:55:20.868Z,50.64
2023-05-01T07:56:20.933Z,50.64
2023-05-01T07:57:20.993Z,51.40
2023-05-01T07:58:21.030Z,52.03
2023-05-01T07:59:21.103Z,51.73
2023-05-01T08:00:21.062Z,51.45
2023-05-01T08:01:21.131Z,51.98
2023-05-01T08:02:21.220Z,51.73
2023-05-01T08:03:21.268Z,50.87
2023-05-01T08:04:21.325Z,50.44
2023-05-01T08:05:21.202Z,50.91
2023-05-01T08:06:21.334Z,51.75
2023-05-01T08:07:21.393Z,51.54
2023-05-01T08:08:21.396Z,51.27
2023-05-01T08:09:21.477Z,51.33
2023-05-01T08:10:21.439Z,51.64
2023-05-01T08:11:21.465Z,50.99
2023-05-01T08:12:21.920Z,50.30
2023-05-01T08:13:21.614Z,50.02
2023-05-01T08:14:21.576Z,49.87
2023-05-01T08:15:21.607Z,50.18
2023-05-01T08:16:22.299Z,50.27
2023-05-01T08:17:21.727Z,50.37
2023-05-01T08:18:21.672Z,50.08
2023-05-01T08:19:21.696Z,50.09
2023-05-01T08:20:21.782Z,50.21
2023-05-01T08:21:21.737Z,50.52
2023-05-01T08:22:21.756Z,50.76
2023-05-01T08:23:21.790Z,50.42
2023-05-01T08:24:21.803Z,49.33
2023-05-01T08:25:21.840Z,48.92
2023-05-01T08:26:22.616Z,48.47
2023-05-01T08:27:21.920Z,48.49
2023-05-01T08:28:21.936Z,48.81
2023-05-01T08:29:22.000Z,49.20
2023-05-01T08:30:21.978Z,49.33
2023-05-01T08:31:22.030Z,49.71
2023-05-01T08:32:22.669Z,49.77
2023-05-01T08:33:22.019Z,49.92
2023-05-01T08:34:22.052Z,49.65
2023-05-01T08:35:22.014Z,50.69
2023-05-01T08:36:22.097Z,50.46
2023-05-01T08:37:22.512Z,51.38
2023-05-01T08:38:22.135Z,52.03
2023-05-01T08:39:22.184Z,50.51
2023-05-01T08:40:22.288Z,50.01
2023-05-01T08:41:22.270Z,49.88
2023-05-01T08:42:22.415Z,50.04
2023-05-01T08:43:22.371Z,49.34
2023-05-01T08:44:22.439Z,47.95
2023-05-01T08:45:22.510Z,48.62
2023-05-01T08:46:22.483Z,48.15
2023-05-01T08:47:22.607Z,48.70
2023-05-01T08:48:22.519Z,47.80
2023-05-01T08:49:22.545Z,48.10
2023-05-01T08:50:22.690Z,48.25
2023-05-01T08:51:22.687Z,48.56
2023-05-01T08:52:22.684Z,48.59
2023-05-01T08:53:22.674Z,48.61
2023-05-01T08:54:22.693Z,47.84
2023-05-01T08:55:22.795Z,48.43
2023-05-01T08:56:22.741Z,47.39
2023-05-01T08:57:22.741Z,47.50
2023-05-01T08:58:22.798Z,47.66
2023-05-01T08:59:22.871Z,47.92
2023-05-01T09:00:22.972Z,49.81
2023-05-01T09:01:22.895Z,49.68
2023-05-01T09:02:22.956Z,49.11
2023-05-01T09:03:22.935Z,47.95
2023-05-01T09:04:23.093Z,48.20
2023-05-01T09:05:22.886Z,48.61
2023-05-01T09:06:22.975Z,47.74
2023-05-01T09:07:23.036Z,46.86
2023-05-01T09:08:22.991Z,48.41
2023-05-01T09:09:23.064Z,47.03
2023-05-01T09:10:23.031Z,47.72
2023-05-01T09:11:23.083Z,46.97
2023-05-01T09:12:23.070Z,48.56
2023-05-01T09:13:23.162Z,48.61
2023-05-01T09:14:23.212Z,47.56
2023-05-01T09:15:23.196Z,47.62
2023-05-01T09:16:23.289Z,46.92
2023-05-01T09:17:23.253Z,46.61
2023-05-01T09:18:23.313Z,46.79
2023-05-01T09:19:23.308Z,46.73
2023-05-01T09:20:23.319Z,47.57
2023-05-01T09:21:23.380Z,47.42
2023-05-01T09:22:23.455Z,47.88
2023-05-01T09:23:23.484Z,47.90
2023-05-01T09:24:23.495Z,47.33
2023-05-01T09:25:23.570Z,47.92
2023-05-01T09:26:23.604Z,47.43
2023-05-01T09:27:23.672Z,47.12
2023-05-01T09:28:23.764Z,47.34
2023-05-01T09:29:23.705Z,46.37
2023-05-01T09:30:23.769Z,46.15
2023-05-01T09:31:23.924Z,46.96
2023-05-01T09:32:23.928Z,47.00
2023-05-01T09:33:23.958Z,46.72
2023-05-01T09:34:23.948Z,48.27
2023-05-01T09:35:24.058Z,48.32
2023-05-01T09:36:24.058Z,46.99
2023-05-01T09:37:24.099Z,47.18
2023-05-01T09:38:25.929Z,46.63
2023-05-01T09:39:24.157Z,46.11
2023-05-01T09:40:24.168Z,45.38
2023-05-01T09:41:24.236Z,46.29
2023-05-01T09:42:24.252Z,46.95
2023-05-01T09:43:24.299Z,46.28
2023-05-01T09:44:24.359Z,45.98
2023-05-01T09:45:24.372Z,46.61
2023-05-01T09:46:24.487Z,45.17
2023-05-01T09:47:24.420Z,48.01
2023-05-01T09:48:24.455Z,46.87
2023-05-01T09:49:24.482Z,46.44
2023-05-01T09:50:24.508Z,46.50
2023-05-01T09:51:24.545Z,46.86
2023-05-01T09:52:24.573Z,45.96
2023-05-01T09:53:24.934Z,45.47
2023-05-01T09:54:24.665Z,45.47
2023-05-01T09:55:25.641Z,45.18
2023-05-01T09:56:27.461Z,44.65
2023-05-01T09:57:24.688Z,45.63
2023-05-01T09:58:24.652Z,45.49
2023-05-01T09:59:24.671Z,45.61
2023-05-01T10:00:24.700Z,45.93
2023-05-01T10:01:24.678Z,45.24
2023-05-01T10:02:24.707Z,46.24
2023-05-01T10:03:25.177Z,46.20
2023-05-01T10:04:24.632Z,47.22
2023-05-01T10:05:24.672Z,46.12
2023-05-01T10:06:24.660Z,46.12
2023-05-01T10:07:24.618Z,46.56
2023-05-01T10:08:24.585Z,44.69
2023-05-01T10:09:24.688Z,45.95
2023-05-01T10:10:24.575Z,45.03
2023-05-01T10:11:24.593Z,44.53
2023-05-01T10:12:24.589Z,44.72
2023-05-01T10:13:24.561Z,45.01
2023-05-01T10:14:24.565Z,43.34
2023-05-01T10:15:26.764Z,43.14
2023-05-01T10:16:24.752Z,42.87
2023-05-01T10:17:24.888Z,42.87
2023-05-01T10:18:24.875Z,44.25
2023-05-01T10:19:24.866Z,44.27
2023-05-01T10:20:24.885Z,44.29
2023-05-01T10:21:24.945Z,43.61
2023-05-01T10:22:24.961Z,43.66
2023-05-01T10:23:25.021Z,43.29
2023-05-01T10:24:25.101Z,42.52
2023-05-01T10:25:25.117Z,41.66
2023-05-01T10:26:25.258Z,41.77
2023-05-01T10:27:25.254Z,41.92
2023-05-01T10:28:25.335Z,41.47
2023-05-01T10:29:25.366Z,42.26
2023-05-01T10:30:25.410Z,41.88
2023-05-01T10:31:25.540Z,41.49
2023-05-01T10:32:25.489Z,40.79
2023-05-01T10:33:25.971Z,41.17
2023-05-01T10:34:27.042Z,40.68
2023-05-01T10:35:25.559Z,40.31
2023-05-01T10:36:25.572Z,39.66
2023-05-01T10:37:25.598Z,37.80
2023-05-01T10:38:25.575Z,37.36
2023-05-01T10:39:25.527Z,37.85
2023-05-01T10:40:25.528Z,38.24
2023-05-01T10:41:25.555Z,38.04
2023-05-01T10:42:25.512Z,37.72
2023-05-01T10:43:25.522Z,37.88
2023-05-01T10:44:25.496Z,37.75
2023-05-01T10:45:25.517Z,36.91
2023-05-01T10:46:25.530Z,37.32
2023-05-01T10:47:25.626Z,40.25
2023-05-01T10:48:25.485Z,39.51
2023-05-01T10:49:25.492Z,38.96
2023-05-01T10:50:25.456Z,39.03
2023-05-01T10:51:27.694Z,39.04
2023-05-01T10:52:25.458Z,39.00
2023-05-01T10:53:25.445Z,39.13
2023-05-01T10:54:25.413Z,39.13
2023-05-01T10:55:25.437Z,39.22
2023-05-01T10:56:25.506Z,39.33
2023-05-01T10:57:25.433Z,39.42
2023-05-01T10:58:25.460Z,39.82
2023-05-01T10:59:25.413Z,39.78
2023-05-01T11:00:25.414Z,39.51
2023-05-01T11:01:25.398Z,39.14
2023-05-01T11:02:25.495Z,39.05
2023-05-01T11:03:25.516Z,39.09
2023-05-01T11:04:25.463Z,39.19
2023-05-01T11:05:35.929Z,39.41
2023-05-01T11:06:26.489Z,39.68
2023-05-01T11:07:25.367Z,39.91
2023-05-01T11:08:25.343Z,40.10
2023-05-01T11:09:25.314Z,40.05
2023-05-01T11:10:25.330Z,39.94
2023-05-01T11:11:25.344Z,40.37
2023-05-01T11:12:25.309Z,42.05
2023-05-01T11:13:25.347Z,43.02
2023-05-01T11:14:25.291Z,43.80
2023-05-01T11:15:25.313Z,43.17
2023-05-01T11:16:25.359Z,42.01
2023-05-01T11:17:26.021Z,42.37
2023-05-01T11:18:25.417Z,42.21
2023-05-01T11:19:26.209Z,42.34
2023-05-01T11:20:25.519Z,42.22
2023-05-01T11:21:25.536Z,43.07
2023-05-01T11:22:25.577Z,40.36
2023-05-01T11:23:25.613Z,42.44
2023-05-01T11:24:25.629Z,42.41
2023-05-01T11:25:25.621Z,44.78
2023-05-01T11:26:25.653Z,45.66
2023-05-01T11:27:25.689Z,44.77
2023-05-01T11:28:25.731Z,44.52
2023-05-01T11:29:25.719Z,44.19
2023-05-01T11:30:25.838Z,43.27
2023-05-01T11:31:25.851Z,42.81
2023-05-01T11:32:25.828Z,44.24
2023-05-01T11:33:25.888Z,43.44
2023-05-01T11:34:25.866Z,44.63
2023-05-01T11:35:25.985Z,45.00
2023-05-01T11:36:25.961Z,44.44
2023-05-01T11:37:25.977Z,43.17
2023-05-01T11:38:25.993Z,42.71
2023-05-01T11:39:26.010Z,42.50
2023-05-01T11:40:26.068Z,42.90
2023-05-01T11:41:26.165Z,42.94
2023-05-01T11:42:26.163Z,44.09
2023-05-01T11:43:26.137Z,43.77
2023-05-01T11:44:26.162Z,45.13
2023-05-01T11:45:26.125Z,45.33
2023-05-01T11:46:26.311Z,45.79
2023-05-01T11:47:26.219Z,43.53
2023-05-01T11:48:26.156Z,44.22
2023-05-01T11:49:26.152Z,43.35
2023-05-01T11:50:26.215Z,44.92
2023-05-01T11:51:26.236Z,45.27
2023-05-01T11:52:26.250Z,45.54
2023-05-01T11:53:26.275Z,45.85
2023-05-01T11:54:26.328Z,45.91
2023-05-01T11:55:26.340Z,45.40
2023-05-01T11:56:27.459Z,45.94
2023-05-01T11:57:26.392Z,45.84
2023-05-01T11:58:26.497Z,46.29
2023-05-01T11:59:26.517Z,47.44
2023-05-01T12:00:26.563Z,47.32
2023-05-01T12:01:26.585Z,48.47
2023-05-01T12:02:26.735Z,47.92
2023-05-01T12:03:26.997Z,47.47
2023-05-01T12:04:29.663Z,47.44
2023-05-01T12:05:27.621Z,47.02
2023-05-01T12:06:26.693Z,46.99
2023-05-01T12:07:26.630Z,48.87
2023-05-01T12:08:26.604Z,48.37
2023-05-01T12:09:26.650Z,48.20
2023-05-01T12:10:26.611Z,47.91
2023-05-01T12:11:26.588Z,47.60
2023-05-01T12:12:26.612Z,47.66
2023-05-01T12:13:26.601Z,49.96
2023-05-01T12:14:26.567Z,50.49
2023-05-01T12:15:26.640Z,49.72
2023-05-01T12:16:26.666Z,48.46
2023-05-01T12:17:26.803Z,47.16
2023-05-01T12:18:26.823Z,47.81
2023-05-01T12:19:26.820Z,47.68
2023-05-01T12:20:26.896Z,49.61
2023-05-01T12:21:26.879Z,51.25
2023-05-01T12:22:26.869Z,52.11
2023-05-01T12:23:26.887Z,52.18
2023-05-01T12:24:26.969Z,51.66
2023-05-01T12:25:27.000Z,52.90
2023-05-01T12:26:27.045Z,53.86
2023-05-01T12:27:27.086Z,53.93
2023-05-01T12:28:27.129Z,53.70
2023-05-01T12:29:27.149Z,51.64
2023-05-01T12:30:27.155Z,49.81
2023-05-01T12:31:27.217Z,51.08
2023-05-01T12:32:27.267Z,51.93
2023-05-01T12:33:27.497Z,51.72
2023-05-01T12:34:27.317Z,52.76
2023-05-01T12:35:27.365Z,51.83
2023-05-01T12:36:27.546Z,53.19
2023-05-01T12:37:27.444Z,51.17
2023-05-01T12:38:27.433Z,51.69
2023-05-01T12:39:27.477Z,50.46
2023-05-01T12:40:27.544Z,50.14
2023-05-01T12:41:27.544Z,47.95
2023-05-01T12:42:27.523Z,48.60
2023-05-01T12:43:27.565Z,47.24
2023-05-01T12:44:27.662Z,47.89
2023-05-01T12:45:27.677Z,43.73
2023-05-01T12:46:27.758Z,46.15
2023-05-01T12:47:27.921Z,45.36
2023-05-01T12:48:27.893Z,42.06
2023-05-01T12:49:27.770Z,41.90
2023-05-01T12:50:27.971Z,42.47
2023-05-01T12:51:27.864Z,40.60
2023-05-01T12:52:27.888Z,40.82